sensor_id;sensor_type;location;lat;lon;timestamp;temperature;humidity
47961;DHT22;33721;48.852;9.936;2024-01-11T00:00:34;-4.20;99.90
47961;DHT22;33721;48.852;9.936;2024-01-11T00:03:00;-4.20;99.90
47961;DHT22;33721;48.852;9.936;2024-01-11T00:05:26;-4.10;99.90
47961;DHT22;33721;48.852;9.936;2024-01-11T00:07:52;-4.10;99.90
47961;DHT22;33721;48.852;9.936;2024-01-11T00:10:18;-4.10;99.90
47961;DHT22;33721;48.852;9.936;2024-01-11T00:12:44;-4.10;99.90
47961;DHT22;33721;48.852;9.936;2024-01-11T00:15:10;-4.10;99.90
47961;DHT22;33721;48.852;9.936;2024-01-11T00:17:36;-4.20;99.90
47961;DHT22;33721;48.852;9.936;2024-01-11T00:20:02;-4.30;99.90
47961;DHT22;33721;48.852;9.936;2024-01-11T00:22:28;-4.40;99.90
47961;DHT22;33721;48.852;9.936;2024-01-11T00:24:53;-4.40;99.90
47961;DHT22;33721;48.852;9.936;2024-01-11T00:27:19;-4.50;99.90
47961;DHT22;33721;48.852;9.936;2024-01-11T00:29:45;-4.40;99.90
47961;DHT22;33721;48.852;9.936;2024-01-11T00:32:10;-4.40;99.90
47961;DHT22;33721;48.852;9.936;2024-01-11T00:37:51;-4.50;99.90
47961;DHT22;33721;48.852;9.936;2024-01-11T00:40:17;-4.50;99.90
47961;DHT22;33721;48.852;9.936;2024-01-11T00:42:43;-4.60;99.90
47961;DHT22;33721;48.852;9.936;2024-01-11T00:45:08;-4.60;99.90
47961;DHT22;33721;48.852;9.936;2024-01-11T00:47:34;-4.70;99.90
47961;DHT22;33721;48.852;9.936;2024-01-11T00:50:00;-4.70;99.90
47961;DHT22;33721;48.852;9.936;2024-01-11T00:52:25;-4.90;99.90
47961;DHT22;33721;48.852;9.936;2024-01-11T00:54:51;-4.90;99.90
47961;DHT22;33721;48.852;9.936;2024-01-11T00:57:17;-4.90;99.90
47961;DHT22;33721;48.852;9.936;2024-01-11T00:59:42;-4.90;99.90
47961;DHT22;33721;48.852;9.936;2024-01-11T01:02:08;-4.90;99.90
47961;DHT22;33721;48.852;9.936;2024-01-11T01:04:37;-4.90;99.90
47961;DHT22;33721;48.852;9.936;2024-01-11T01:07:03;-4.90;99.90
47961;DHT22;33721;48.852;9.936;2024-01-11T01:09:29;-4.90;99.90
47961;DHT22;33721;48.852;9.936;2024-01-11T01:11:56;-4.90;99.90
47961;DHT22;33721;48.852;9.936;2024-01-11T01:14:21;-4.90;99.90
47961;DHT22;33721;48.852;9.936;2024-01-11T01:16:47;-5.00;99.90
47961;DHT22;33721;48.852;9.936;2024-01-11T01:19:12;-5.00;99.90
47961;DHT22;33721;48.852;9.936;2024-01-11T01:21:38;-5.10;99.90
47961;DHT22;33721;48.852;9.936;2024-01-11T01:24:04;-5.10;99.90
47961;DHT22;33721;48.852;9.936;2024-01-11T01:26:29;-5.10;99.90
47961;DHT22;33721;48.852;9.936;2024-01-11T01:28:55;-5.10;99.90
47961;DHT22;33721;48.852;9.936;2024-01-11T01:31:21;-5.10;99.90
47961;DHT22;33721;48.852;9.936;2024-01-11T01:33:47;-5.10;99.90
47961;DHT22;33721;48.852;9.936;2024-01-11T01:36:12;-5.00;99.90
47961;DHT22;33721;48.852;9.936;2024-01-11T01:38:38;-4.90;99.90
47961;DHT22;33721;48.852;9.936;2024-01-11T01:41:04;-4.90;99.90
47961;DHT22;33721;48.852;9.936;2024-01-11T01:43:30;-4.90;99.90
47961;DHT22;33721;48.852;9.936;2024-01-11T01:45:56;-4.90;99.90
47961;DHT22;33721;48.852;9.936;2024-01-11T01:48:21;-4.90;99.90
47961;DHT22;33721;48.852;9.936;2024-01-11T01:50:48;-4.90;99.90
47961;DHT22;33721;48.852;9.936;2024-01-11T01:53:27;-4.90;99.90
47961;DHT22;33721;48.852;9.936;2024-01-11T01:55:53;-4.80;99.90
47961;DHT22;33721;48.852;9.936;2024-01-11T01:58:20;-4.80;99.90
47961;DHT22;33721;48.852;9.936;2024-01-11T02:00:48;-4.80;99.90
47961;DHT22;33721;48.852;9.936;2024-01-11T02:03:16;-4.90;99.90
47961;DHT22;33721;48.852;9.936;2024-01-11T02:05:42;-5.00;99.90
47961;DHT22;33721;48.852;9.936;2024-01-11T02:08:08;-5.00;99.90
47961;DHT22;33721;48.852;9.936;2024-01-11T02:10:37;-5.10;99.90
47961;DHT22;33721;48.852;9.936;2024-01-11T02:13:04;-5.10;99.90
47961;DHT22;33721;48.852;9.936;2024-01-11T02:15:29;-5.00;99.90
47961;DHT22;33721;48.852;9.936;2024-01-11T02:17:55;-5.10;99.90
47961;DHT22;33721;48.852;9.936;2024-01-11T02:20:21;-5.10;99.90
47961;DHT22;33721;48.852;9.936;2024-01-11T02:22:52;-5.10;99.90
47961;DHT22;33721;48.852;9.936;2024-01-11T02:25:18;-5.20;99.90
47961;DHT22;33721;48.852;9.936;2024-01-11T02:27:48;-5.20;99.90
47961;DHT22;33721;48.852;9.936;2024-01-11T02:30:14;-5.30;99.90
47961;DHT22;33721;48.852;9.936;2024-01-11T02:32:41;-5.30;99.90
47961;DHT22;33721;48.852;9.936;2024-01-11T02:35:08;-5.30;99.90
47961;DHT22;33721;48.852;9.936;2024-01-11T02:37:34;-5.20;99.90
47961;DHT22;33721;48.852;9.936;2024-01-11T02:40:01;-5.20;99.90
47961;DHT22;33721;48.852;9.936;2024-01-11T02:42:27;-5.20;99.90
47961;DHT22;33721;48.852;9.936;2024-01-11T02:44:53;-5.20;99.90
47961;DHT22;33721;48.852;9.936;2024-01-11T02:47:19;-5.20;99.90
47961;DHT22;33721;48.852;9.936;2024-01-11T02:49:44;-5.20;99.90
47961;DHT22;33721;48.852;9.936;2024-01-11T02:52:10;-5.30;99.90
47961;DHT22;33721;48.852;9.936;2024-01-11T02:54:35;-5.40;99.90
47961;DHT22;33721;48.852;9.936;2024-01-11T02:57:01;-5.50;99.90
47961;DHT22;33721;48.852;9.936;2024-01-11T02:59:27;-5.50;99.90
47961;DHT22;33721;48.852;9.936;2024-01-11T03:01:52;-5.50;99.90
47961;DHT22;33721;48.852;9.936;2024-01-11T03:04:18;-5.50;99.90
47961;DHT22;33721;48.852;9.936;2024-01-11T03:06:43;-5.50;99.90
47961;DHT22;33721;48.852;9.936;2024-01-11T03:09:09;-5.50;99.90
47961;DHT22;33721;48.852;9.936;2024-01-11T03:11:35;-5.50;99.90
47961;DHT22;33721;48.852;9.936;2024-01-11T03:14:03;-5.50;99.90
47961;DHT22;33721;48.852;9.936;2024-01-11T03:16:29;-5.50;99.90
47961;DHT22;33721;48.852;9.936;2024-01-11T03:18:55;-5.50;99.90
47961;DHT22;33721;48.852;9.936;2024-01-11T03:21:21;-5.50;99.90
47961;DHT22;33721;48.852;9.936;2024-01-11T03:23:46;-5.50;99.90
47961;DHT22;33721;48.852;9.936;2024-01-11T03:26:18;-5.50;99.90
47961;DHT22;33721;48.852;9.936;2024-01-11T03:28:44;-5.50;99.90
47961;DHT22;33721;48.852;9.936;2024-01-11T03:31:10;-5.50;99.90
47961;DHT22;33721;48.852;9.936;2024-01-11T03:33:36;-5.60;99.90
47961;DHT22;33721;48.852;9.936;2024-01-11T03:36:09;-5.70;99.90
47961;DHT22;33721;48.852;9.936;2024-01-11T03:38:35;-5.80;99.90
47961;DHT22;33721;48.852;9.936;2024-01-11T03:41:01;-5.80;99.90
47961;DHT22;33721;48.852;9.936;2024-01-11T03:43:27;-5.80;99.90
47961;DHT22;33721;48.852;9.936;2024-01-11T03:45:52;-5.70;99.90
47961;DHT22;33721;48.852;9.936;2024-01-11T03:48:18;-5.70;99.90
47961;DHT22;33721;48.852;9.936;2024-01-11T03:50:44;-5.80;99.90
47961;DHT22;33721;48.852;9.936;2024-01-11T03:53:11;-5.90;99.90
47961;DHT22;33721;48.852;9.936;2024-01-11T03:55:36;-6.00;99.90
47961;DHT22;33721;48.852;9.936;2024-01-11T03:58:02;-6.10;99.90
47961;DHT22;33721;48.852;9.936;2024-01-11T04:00:28;-6.10;99.90
47961;DHT22;33721;48.852;9.936;2024-01-11T04:02:53;-6.10;99.90
47961;DHT22;33721;48.852;9.936;2024-01-11T04:05:19;-6.00;99.90
47961;DHT22;33721;48.852;9.936;2024-01-11T04:07:45;-6.10;99.90
47961;DHT22;33721;48.852;9.936;2024-01-11T04:10:10;-6.10;99.90
47961;DHT22;33721;48.852;9.936;2024-01-11T04:12:36;-6.10;99.90
47961;DHT22;33721;48.852;9.936;2024-01-11T04:15:05;-6.10;99.90
47961;DHT22;33721;48.852;9.936;2024-01-11T04:17:31;-6.10;99.90
47961;DHT22;33721;48.852;9.936;2024-01-11T04:19:57;-6.00;99.90
47961;DHT22;33721;48.852;9.936;2024-01-11T04:22:23;-6.00;99.90
47961;DHT22;33721;48.852;9.936;2024-01-11T04:24:48;-6.00;99.90
47961;DHT22;33721;48.852;9.936;2024-01-11T04:27:14;-6.00;99.90
47961;DHT22;33721;48.852;9.936;2024-01-11T04:29:39;-6.00;99.90
47961;DHT22;33721;48.852;9.936;2024-01-11T04:32:05;-6.00;99.90
47961;DHT22;33721;48.852;9.936;2024-01-11T04:34:31;-6.00;99.90
47961;DHT22;33721;48.852;9.936;2024-01-11T04:36:56;-6.00;99.90
47961;DHT22;33721;48.852;9.936;2024-01-11T04:39:22;-5.90;99.90
47961;DHT22;33721;48.852;9.936;2024-01-11T04:41:48;-5.90;99.90
47961;DHT22;33721;48.852;9.936;2024-01-11T04:44:13;-5.90;99.90
47961;DHT22;33721;48.852;9.936;2024-01-11T04:46:39;-6.00;99.90
47961;DHT22;33721;48.852;9.936;2024-01-11T04:49:05;-6.10;99.90
47961;DHT22;33721;48.852;9.936;2024-01-11T04:51:30;-6.10;99.90
47961;DHT22;33721;48.852;9.936;2024-01-11T04:53:56;-6.10;99.90
47961;DHT22;33721;48.852;9.936;2024-01-11T04:56:22;-6.00;99.90
47961;DHT22;33721;48.852;9.936;2024-01-11T04:58:48;-5.90;99.90
47961;DHT22;33721;48.852;9.936;2024-01-11T05:01:17;-5.90;99.90
47961;DHT22;33721;48.852;9.936;2024-01-11T05:03:45;-5.80;99.90
47961;DHT22;33721;48.852;9.936;2024-01-11T05:06:17;-5.80;99.90
47961;DHT22;33721;48.852;9.936;2024-01-11T05:08:44;-5.80;99.90
47961;DHT22;33721;48.852;9.936;2024-01-11T05:11:23;-5.70;99.90
47961;DHT22;33721;48.852;9.936;2024-01-11T05:13:50;-6.00;99.90
47961;DHT22;33721;48.852;9.936;2024-01-11T05:16:23;-6.30;99.90
47961;DHT22;33721;48.852;9.936;2024-01-11T05:18:50;-6.30;99.90
47961;DHT22;33721;48.852;9.936;2024-01-11T05:21:16;-6.20;99.90
47961;DHT22;33721;48.852;9.936;2024-01-11T05:23:41;-6.20;99.90
47961;DHT22;33721;48.852;9.936;2024-01-11T05:26:08;-6.20;99.90
47961;DHT22;33721;48.852;9.936;2024-01-11T05:28:34;-6.20;99.90
47961;DHT22;33721;48.852;9.936;2024-01-11T05:31:00;-6.10;99.90
47961;DHT22;33721;48.852;9.936;2024-01-11T05:33:25;-6.00;99.90
47961;DHT22;33721;48.852;9.936;2024-01-11T05:35:51;-6.20;99.90
47961;DHT22;33721;48.852;9.936;2024-01-11T05:38:19;-6.30;99.90
47961;DHT22;33721;48.852;9.936;2024-01-11T05:40:44;-6.40;99.90
47961;DHT22;33721;48.852;9.936;2024-01-11T05:43:10;-6.50;99.90
47961;DHT22;33721;48.852;9.936;2024-01-11T05:45:36;-6.50;99.90
47961;DHT22;33721;48.852;9.936;2024-01-11T05:48:02;-6.50;99.90
47961;DHT22;33721;48.852;9.936;2024-01-11T05:50:27;-6.40;99.90
47961;DHT22;33721;48.852;9.936;2024-01-11T05:52:53;-6.40;99.90
47961;DHT22;33721;48.852;9.936;2024-01-11T05:55:20;-6.30;99.90
47961;DHT22;33721;48.852;9.936;2024-01-11T05:57:45;-6.30;99.90
47961;DHT22;33721;48.852;9.936;2024-01-11T06:00:11;-6.30;99.90
47961;DHT22;33721;48.852;9.936;2024-01-11T06:02:37;-6.30;99.90
47961;DHT22;33721;48.852;9.936;2024-01-11T06:05:03;-6.20;99.90
47961;DHT22;33721;48.852;9.936;2024-01-11T06:07:29;-6.10;99.90
47961;DHT22;33721;48.852;9.936;2024-01-11T06:09:54;-6.10;99.90
47961;DHT22;33721;48.852;9.936;2024-01-11T06:12:20;-6.00;99.90
47961;DHT22;33721;48.852;9.936;2024-01-11T06:14:46;-5.90;99.90
47961;DHT22;33721;48.852;9.936;2024-01-11T06:17:12;-5.90;99.90
47961;DHT22;33721;48.852;9.936;2024-01-11T06:19:38;-5.90;99.90
47961;DHT22;33721;48.852;9.936;2024-01-11T06:22:04;-5.90;99.90
47961;DHT22;33721;48.852;9.936;2024-01-11T06:24:31;-5.90;99.90
47961;DHT22;33721;48.852;9.936;2024-01-11T06:26:57;-5.90;99.90
47961;DHT22;33721;48.852;9.936;2024-01-11T06:29:22;-5.90;99.90
47961;DHT22;33721;48.852;9.936;2024-01-11T06:31:48;-5.90;99.90
47961;DHT22;33721;48.852;9.936;2024-01-11T06:34:13;-6.00;99.90
47961;DHT22;33721;48.852;9.936;2024-01-11T06:36:39;-6.10;99.90
47961;DHT22;33721;48.852;9.936;2024-01-11T06:39:05;-6.10;99.90
47961;DHT22;33721;48.852;9.936;2024-01-11T06:41:30;-6.20;99.90
47961;DHT22;33721;48.852;9.936;2024-01-11T06:43:56;-6.40;99.90
47961;DHT22;33721;48.852;9.936;2024-01-11T06:46:23;-6.40;99.90
47961;DHT22;33721;48.852;9.936;2024-01-11T06:48:48;-6.40;99.90
47961;DHT22;33721;48.852;9.936;2024-01-11T06:51:21;-6.40;99.90
47961;DHT22;33721;48.852;9.936;2024-01-11T06:53:47;-6.40;99.90
47961;DHT22;33721;48.852;9.936;2024-01-11T06:56:17;-6.30;99.90
47961;DHT22;33721;48.852;9.936;2024-01-11T06:58:44;-6.30;99.90
47961;DHT22;33721;48.852;9.936;2024-01-11T07:01:10;-6.20;99.90
47961;DHT22;33721;48.852;9.936;2024-01-11T07:03:36;-6.20;99.90
47961;DHT22;33721;48.852;9.936;2024-01-11T07:06:02;-6.10;99.90
47961;DHT22;33721;48.852;9.936;2024-01-11T07:08:31;-6.10;99.90
47961;DHT22;33721;48.852;9.936;2024-01-11T07:10:58;-6.10;99.90
47961;DHT22;33721;48.852;9.936;2024-01-11T07:13:24;-6.00;99.90
47961;DHT22;33721;48.852;9.936;2024-01-11T07:15:49;-6.00;99.90
47961;DHT22;33721;48.852;9.936;2024-01-11T07:18:17;-6.00;99.90
47961;DHT22;33721;48.852;9.936;2024-01-11T07:20:43;-6.00;99.90
47961;DHT22;33721;48.852;9.936;2024-01-11T07:23:09;-6.00;99.90
47961;DHT22;33721;48.852;9.936;2024-01-11T07:25:35;-6.10;99.90
47961;DHT22;33721;48.852;9.936;2024-01-11T07:28:01;-6.10;99.90
47961;DHT22;33721;48.852;9.936;2024-01-11T07:30:26;-6.10;99.90
47961;DHT22;33721;48.852;9.936;2024-01-11T07:32:52;-6.20;99.90
47961;DHT22;33721;48.852;9.936;2024-01-11T07:35:17;-6.20;99.90
47961;DHT22;33721;48.852;9.936;2024-01-11T07:37:43;-6.10;99.90
47961;DHT22;33721;48.852;9.936;2024-01-11T07:40:09;-6.20;99.90
47961;DHT22;33721;48.852;9.936;2024-01-11T07:42:39;-6.20;99.90
47961;DHT22;33721;48.852;9.936;2024-01-11T07:45:06;-6.40;99.90
47961;DHT22;33721;48.852;9.936;2024-01-11T07:47:32;-6.40;99.90
47961;DHT22;33721;48.852;9.936;2024-01-11T07:49:58;-6.40;99.90
47961;DHT22;33721;48.852;9.936;2024-01-11T07:52:24;-6.40;99.90
47961;DHT22;33721;48.852;9.936;2024-01-11T07:54:50;-6.30;99.90
47961;DHT22;33721;48.852;9.936;2024-01-11T07:57:15;-6.30;99.90
47961;DHT22;33721;48.852;9.936;2024-01-11T07:59:41;-6.30;99.90
47961;DHT22;33721;48.852;9.936;2024-01-11T08:02:06;-6.30;99.90
47961;DHT22;33721;48.852;9.936;2024-01-11T08:04:33;-6.20;99.90
47961;DHT22;33721;48.852;9.936;2024-01-11T08:06:59;-6.10;99.90
47961;DHT22;33721;48.852;9.936;2024-01-11T08:09:28;-6.00;99.90
47961;DHT22;33721;48.852;9.936;2024-01-11T08:11:54;-5.80;99.90
47961;DHT22;33721;48.852;9.936;2024-01-11T08:14:20;-5.70;99.90
47961;DHT22;33721;48.852;9.936;2024-01-11T08:16:46;-5.50;99.90
47961;DHT22;33721;48.852;9.936;2024-01-11T08:19:12;-5.40;99.90
47961;DHT22;33721;48.852;9.936;2024-01-11T08:21:40;-5.30;99.90
47961;DHT22;33721;48.852;9.936;2024-01-11T08:24:07;-5.20;99.90
47961;DHT22;33721;48.852;9.936;2024-01-11T08:26:33;-5.10;99.90
47961;DHT22;33721;48.852;9.936;2024-01-11T08:28:58;-5.10;99.90
47961;DHT22;33721;48.852;9.936;2024-01-11T08:31:24;-5.00;99.90
47961;DHT22;33721;48.852;9.936;2024-01-11T08:33:50;-4.80;99.90
47961;DHT22;33721;48.852;9.936;2024-01-11T08:36:16;-4.70;99.90
47961;DHT22;33721;48.852;9.936;2024-01-11T08:38:41;-4.70;99.90
47961;DHT22;33721;48.852;9.936;2024-01-11T08:41:07;-4.50;99.90
47961;DHT22;33721;48.852;9.936;2024-01-11T08:43:33;-4.50;99.90
47961;DHT22;33721;48.852;9.936;2024-01-11T08:45:59;-4.30;99.90
47961;DHT22;33721;48.852;9.936;2024-01-11T08:48:25;-4.20;99.90
47961;DHT22;33721;48.852;9.936;2024-01-11T08:50:51;-4.10;99.90
47961;DHT22;33721;48.852;9.936;2024-01-11T08:53:16;-4.00;99.90
47961;DHT22;33721;48.852;9.936;2024-01-11T08:55:43;-4.00;99.90
47961;DHT22;33721;48.852;9.936;2024-01-11T08:58:09;-3.90;99.90
47961;DHT22;33721;48.852;9.936;2024-01-11T09:00:36;-3.70;99.90
47961;DHT22;33721;48.852;9.936;2024-01-11T09:03:03;-3.60;99.90
47961;DHT22;33721;48.852;9.936;2024-01-11T09:05:28;-3.50;99.90
47961;DHT22;33721;48.852;9.936;2024-01-11T09:07:54;-3.40;99.90
47961;DHT22;33721;48.852;9.936;2024-01-11T09:10:20;-3.20;99.90
47961;DHT22;33721;48.852;9.936;2024-01-11T09:12:45;-3.00;99.90
47961;DHT22;33721;48.852;9.936;2024-01-11T09:15:12;-2.80;99.90
47961;DHT22;33721;48.852;9.936;2024-01-11T09:17:38;-2.70;99.90
47961;DHT22;33721;48.852;9.936;2024-01-11T09:20:04;-2.60;99.90
47961;DHT22;33721;48.852;9.936;2024-01-11T09:22:30;-2.50;99.90
47961;DHT22;33721;48.852;9.936;2024-01-11T09:24:55;-2.30;99.90
47961;DHT22;33721;48.852;9.936;2024-01-11T09:27:21;-2.20;99.90
47961;DHT22;33721;48.852;9.936;2024-01-11T09:29:47;-2.20;99.90
47961;DHT22;33721;48.852;9.936;2024-01-11T09:32:13;-1.90;99.90
47961;DHT22;33721;48.852;9.936;2024-01-11T09:34:39;-1.80;99.90
47961;DHT22;33721;48.852;9.936;2024-01-11T09:37:05;-2.00;99.90
47961;DHT22;33721;48.852;9.936;2024-01-11T09:39:30;-2.00;99.90
47961;DHT22;33721;48.852;9.936;2024-01-11T09:42:06;-1.80;99.90
47961;DHT22;33721;48.852;9.936;2024-01-11T09:44:33;-1.60;99.90
47961;DHT22;33721;48.852;9.936;2024-01-11T09:47:00;-1.40;99.90
47961;DHT22;33721;48.852;9.936;2024-01-11T09:49:27;-1.30;99.90
47961;DHT22;33721;48.852;9.936;2024-01-11T09:51:55;-1.20;99.90
47961;DHT22;33721;48.852;9.936;2024-01-11T09:54:25;-1.20;99.90
47961;DHT22;33721;48.852;9.936;2024-01-11T09:56:52;-1.20;99.90
47961;DHT22;33721;48.852;9.936;2024-01-11T09:59:20;-1.20;99.90
47961;DHT22;33721;48.852;9.936;2024-01-11T10:01:47;-1.30;99.90
47961;DHT22;33721;48.852;9.936;2024-01-11T10:04:14;-1.30;99.90
47961;DHT22;33721;48.852;9.936;2024-01-11T10:06:41;-1.40;99.90
47961;DHT22;33721;48.852;9.936;2024-01-11T10:09:08;-1.30;99.90
47961;DHT22;33721;48.852;9.936;2024-01-11T10:11:34;-1.20;99.90
47961;DHT22;33721;48.852;9.936;2024-01-11T10:14:02;-1.10;99.90
47961;DHT22;33721;48.852;9.936;2024-01-11T10:16:28;-0.90;99.90
47961;DHT22;33721;48.852;9.936;2024-01-11T10:18:55;-0.80;99.90
47961;DHT22;33721;48.852;9.936;2024-01-11T10:21:21;-0.60;99.90
47961;DHT22;33721;48.852;9.936;2024-01-11T10:23:47;-0.60;99.90
47961;DHT22;33721;48.852;9.936;2024-01-11T10:26:16;-0.50;99.90
47961;DHT22;33721;48.852;9.936;2024-01-11T10:28:45;-0.30;99.90
47961;DHT22;33721;48.852;9.936;2024-01-11T10:31:11;0.00;99.90
47961;DHT22;33721;48.852;9.936;2024-01-11T10:33:37;0.20;99.90
47961;DHT22;33721;48.852;9.936;2024-01-11T10:36:03;0.00;99.90
47961;DHT22;33721;48.852;9.936;2024-01-11T10:38:30;0.00;99.90
47961;DHT22;33721;48.852;9.936;2024-01-11T10:41:00;0.10;99.90
47961;DHT22;33721;48.852;9.936;2024-01-11T10:43:26;0.40;99.90
47961;DHT22;33721;48.852;9.936;2024-01-11T10:45:58;0.60;99.90
47961;DHT22;33721;48.852;9.936;2024-01-11T10:48:25;0.90;99.90
47961;DHT22;33721;48.852;9.936;2024-01-11T10:51:00;0.80;99.90
47961;DHT22;33721;48.852;9.936;2024-01-11T10:53:41;0.40;99.90
47961;DHT22;33721;48.852;9.936;2024-01-11T10:56:08;0.40;99.90
47961;DHT22;33721;48.852;9.936;2024-01-11T10:58:35;0.40;99.90
47961;DHT22;33721;48.852;9.936;2024-01-11T11:01:01;0.70;99.90
47961;DHT22;33721;48.852;9.936;2024-01-11T11:03:28;1.10;99.90
47961;DHT22;33721;48.852;9.936;2024-01-11T11:05:56;1.30;99.90
47961;DHT22;33721;48.852;9.936;2024-01-11T11:08:22;1.00;99.90
47961;DHT22;33721;48.852;9.936;2024-01-11T11:10:51;1.40;99.90
47961;DHT22;33721;48.852;9.936;2024-01-11T11:13:21;1.60;99.90
47961;DHT22;33721;48.852;9.936;2024-01-11T11:15:48;1.50;99.90
47961;DHT22;33721;48.852;9.936;2024-01-11T11:18:15;1.50;99.90
47961;DHT22;33721;48.852;9.936;2024-01-11T11:20:42;1.80;99.90
47961;DHT22;33721;48.852;9.936;2024-01-11T11:23:09;2.10;99.90
47961;DHT22;33721;48.852;9.936;2024-01-11T11:25:41;2.30;99.90
47961;DHT22;33721;48.852;9.936;2024-01-11T11:28:07;2.30;99.90
47961;DHT22;33721;48.852;9.936;2024-01-11T11:30:37;2.30;99.90
47961;DHT22;33721;48.852;9.936;2024-01-11T11:35:35;2.80;99.90
47961;DHT22;33721;48.852;9.936;2024-01-11T11:38:01;2.70;99.90
47961;DHT22;33721;48.852;9.936;2024-01-11T11:40:38;2.80;99.90
47961;DHT22;33721;48.852;9.936;2024-01-11T11:43:08;3.00;99.90
47961;DHT22;33721;48.852;9.936;2024-01-11T11:45:35;2.90;99.90
47961;DHT22;33721;48.852;9.936;2024-01-11T11:51:09;2.60;99.90
47961;DHT22;33721;48.852;9.936;2024-01-11T11:53:40;2.70;99.90
47961;DHT22;33721;48.852;9.936;2024-01-11T11:56:06;2.80;99.90
47961;DHT22;33721;48.852;9.936;2024-01-11T11:58:34;2.70;99.90
47961;DHT22;33721;48.852;9.936;2024-01-11T12:01:00;2.90;99.90
47961;DHT22;33721;48.852;9.936;2024-01-11T12:03:35;3.00;99.90
47961;DHT22;33721;48.852;9.936;2024-01-11T12:06:03;3.00;99.90
47961;DHT22;33721;48.852;9.936;2024-01-11T12:08:29;3.30;99.90
47961;DHT22;33721;48.852;9.936;2024-01-11T12:10:55;3.10;99.90
47961;DHT22;33721;48.852;9.936;2024-01-11T12:13:20;3.00;99.90
47961;DHT22;33721;48.852;9.936;2024-01-11T12:15:46;3.00;99.90
47961;DHT22;33721;48.852;9.936;2024-01-11T12:18:12;3.10;99.90
47961;DHT22;33721;48.852;9.936;2024-01-11T12:20:38;3.30;99.90
47961;DHT22;33721;48.852;9.936;2024-01-11T12:23:04;3.10;99.90
47961;DHT22;33721;48.852;9.936;2024-01-11T12:25:30;3.10;99.90
47961;DHT22;33721;48.852;9.936;2024-01-11T12:27:56;3.20;99.90
47961;DHT22;33721;48.852;9.936;2024-01-11T12:30:22;3.20;99.90
47961;DHT22;33721;48.852;9.936;2024-01-11T12:32:49;3.40;99.90
47961;DHT22;33721;48.852;9.936;2024-01-11T12:35:16;3.40;99.90
47961;DHT22;33721;48.852;9.936;2024-01-11T12:37:58;3.40;99.90
47961;DHT22;33721;48.852;9.936;2024-01-11T12:40:24;3.50;99.90
47961;DHT22;33721;48.852;9.936;2024-01-11T12:42:50;3.80;99.90
47961;DHT22;33721;48.852;9.936;2024-01-11T12:45:16;3.70;99.90
47961;DHT22;33721;48.852;9.936;2024-01-11T12:47:43;3.90;99.90
47961;DHT22;33721;48.852;9.936;2024-01-11T12:50:10;4.20;99.90
47961;DHT22;33721;48.852;9.936;2024-01-11T12:52:38;4.40;99.90
47961;DHT22;33721;48.852;9.936;2024-01-11T12:55:04;4.10;99.90
47961;DHT22;33721;48.852;9.936;2024-01-11T12:57:30;4.10;99.90
47961;DHT22;33721;48.852;9.936;2024-01-11T13:00:14;4.10;99.90
47961;DHT22;33721;48.852;9.936;2024-01-11T13:02:42;4.10;99.90
47961;DHT22;33721;48.852;9.936;2024-01-11T13:05:11;4.40;99.90
47961;DHT22;33721;48.852;9.936;2024-01-11T13:07:37;4.20;99.90
47961;DHT22;33721;48.852;9.936;2024-01-11T13:10:03;4.40;99.90
47961;DHT22;33721;48.852;9.936;2024-01-11T13:12:30;4.30;99.90
47961;DHT22;33721;48.852;9.936;2024-01-11T13:14:55;4.10;99.90
47961;DHT22;33721;48.852;9.936;2024-01-11T13:17:21;4.20;99.90
47961;DHT22;33721;48.852;9.936;2024-01-11T13:19:47;4.20;99.90
47961;DHT22;33721;48.852;9.936;2024-01-11T13:22:13;4.30;99.90
47961;DHT22;33721;48.852;9.936;2024-01-11T13:24:38;4.10;99.90
47961;DHT22;33721;48.852;9.936;2024-01-11T13:27:04;4.30;99.90
47961;DHT22;33721;48.852;9.936;2024-01-11T13:29:30;4.20;99.90
47961;DHT22;33721;48.852;9.936;2024-01-11T13:31:56;4.10;99.90
47961;DHT22;33721;48.852;9.936;2024-01-11T13:34:21;4.40;99.90
47961;DHT22;33721;48.852;9.936;2024-01-11T13:36:47;4.30;99.90
47961;DHT22;33721;48.852;9.936;2024-01-11T13:39:13;4.40;99.90
47961;DHT22;33721;48.852;9.936;2024-01-11T13:41:38;4.50;99.90
47961;DHT22;33721;48.852;9.936;2024-01-11T13:44:06;4.30;99.90
47961;DHT22;33721;48.852;9.936;2024-01-11T13:46:32;4.50;99.90
47961;DHT22;33721;48.852;9.936;2024-01-11T13:48:58;4.50;99.90
47961;DHT22;33721;48.852;9.936;2024-01-11T13:51:24;4.10;99.90
47961;DHT22;33721;48.852;9.936;2024-01-11T13:53:49;4.00;99.90
47961;DHT22;33721;48.852;9.936;2024-01-11T13:56:15;4.10;99.90
47961;DHT22;33721;48.852;9.936;2024-01-11T13:58:41;4.20;99.90
47961;DHT22;33721;48.852;9.936;2024-01-11T14:01:06;4.20;99.90
47961;DHT22;33721;48.852;9.936;2024-01-11T14:03:33;4.30;99.90
47961;DHT22;33721;48.852;9.936;2024-01-11T14:05:59;4.20;99.90
47961;DHT22;33721;48.852;9.936;2024-01-11T14:08:25;4.00;99.90
47961;DHT22;33721;48.852;9.936;2024-01-11T14:10:51;3.90;99.90
47961;DHT22;33721;48.852;9.936;2024-01-11T14:13:17;4.00;99.90
47961;DHT22;33721;48.852;9.936;2024-01-11T14:15:42;4.10;99.90
47961;DHT22;33721;48.852;9.936;2024-01-11T14:18:08;4.00;99.90
47961;DHT22;33721;48.852;9.936;2024-01-11T14:20:35;3.90;99.90
47961;DHT22;33721;48.852;9.936;2024-01-11T14:23:01;3.90;99.90
47961;DHT22;33721;48.852;9.936;2024-01-11T14:25:26;4.00;99.90
47961;DHT22;33721;48.852;9.936;2024-01-11T14:27:52;4.00;99.90
47961;DHT22;33721;48.852;9.936;2024-01-11T14:30:21;4.10;99.90
47961;DHT22;33721;48.852;9.936;2024-01-11T14:32:48;4.10;99.90
47961;DHT22;33721;48.852;9.936;2024-01-11T14:35:14;4.20;99.90
47961;DHT22;33721;48.852;9.936;2024-01-11T14:37:40;4.30;99.90
47961;DHT22;33721;48.852;9.936;2024-01-11T14:40:06;4.40;99.90
47961;DHT22;33721;48.852;9.936;2024-01-11T14:42:35;4.50;99.90
47961;DHT22;33721;48.852;9.936;2024-01-11T14:45:02;4.40;99.90
47961;DHT22;33721;48.852;9.936;2024-01-11T14:47:29;4.30;99.90
47961;DHT22;33721;48.852;9.936;2024-01-11T14:49:54;4.00;99.90
47961;DHT22;33721;48.852;9.936;2024-01-11T14:52:20;3.80;99.90
47961;DHT22;33721;48.852;9.936;2024-01-11T14:54:46;3.80;99.90
47961;DHT22;33721;48.852;9.936;2024-01-11T14:57:15;3.80;99.90
47961;DHT22;33721;48.852;9.936;2024-01-11T14:59:42;3.60;99.90
47961;DHT22;33721;48.852;9.936;2024-01-11T15:02:07;3.50;99.90
47961;DHT22;33721;48.852;9.936;2024-01-11T15:04:35;3.40;99.90
47961;DHT22;33721;48.852;9.936;2024-01-11T15:07:00;3.30;99.90
47961;DHT22;33721;48.852;9.936;2024-01-11T15:09:26;3.20;99.90
47961;DHT22;33721;48.852;9.936;2024-01-11T15:11:52;3.10;99.90
47961;DHT22;33721;48.852;9.936;2024-01-11T15:14:18;3.10;99.90
47961;DHT22;33721;48.852;9.936;2024-01-11T15:16:44;3.10;99.90
47961;DHT22;33721;48.852;9.936;2024-01-11T15:19:11;3.10;99.90
47961;DHT22;33721;48.852;9.936;2024-01-11T15:21:38;3.10;99.90
47961;DHT22;33721;48.852;9.936;2024-01-11T15:24:05;2.60;99.90
47961;DHT22;33721;48.852;9.936;2024-01-11T15:26:30;2.30;99.90
47961;DHT22;33721;48.852;9.936;2024-01-11T15:28:56;2.00;99.90
47961;DHT22;33721;48.852;9.936;2024-01-11T15:31:22;1.90;99.90
47961;DHT22;33721;48.852;9.936;2024-01-11T15:33:48;1.90;99.90
47961;DHT22;33721;48.852;9.936;2024-01-11T15:36:14;1.70;99.90
47961;DHT22;33721;48.852;9.936;2024-01-11T15:38:39;1.30;99.90